메인 페이지
METAR-TAF:

METAR-TAF

공항 :

산후안, 푸에르토리코, 미국

위도: 18-27N, 경도: 066-00W, 고도: 3m

현재 날씨관측

예보는 12분 전, 05:56시(UTC)에 발표되었습니다.
7kt
온도 26°C
습도 94%
기압 1019 hPa
시정: 16.1km
고도 2300ft 상공 구름 조금
고도 3400ft 상공 구름 보통
고도 4400ft 상공 구름 보통

METAR: TJSJ 170556Z 10007KT 10SM FEW023 SCT034 SCT044 26/25 A3009 RMK AO2 SLP190 VCSH S 60003 T02610250 10278 20261 58004

시각: 02:08 (06:08 UTC)

예보

예보는 28분 전, 05:40시(UTC)에 발표되었습니다.
예보 대상 시간: 17일 06시부터 18일 06시까지 (UTC)
동남동5kt
시정: 10km
고도 2500ft 상공 구름 조금
고도 4000ft 상공 구름 보통
시계 내 소나기
17일 1300시부터 (UTC)
12kt
시정: 10km
고도 3000ft 상공 구름 조금
고도 5000ft 상공 구름 보통
17일 1630시부터 (UTC)
15kt
시정: 10km
고도 3000ft 상공 구름 보통
고도 5000ft 상공 구름 보통
시계 내 소나기
17일 2300시부터 (UTC)
동남동5kt
시정: 10km
고도 3000ft 상공 구름 조금

TAF: TJSJ 170540Z 1706/1806 11005KT P6SM VCSH FEW025 SCT040 FM171300 08012KT P6SM FEW030 SCT050 FM171630 08015KT P6SM VCSH SCT030 SCT050 FM172300 11005KT P6SM FEW030

4,000개 이상의 공항 관측 자료 및 예보 (METAR 및 TAF 보고).

지도상에서 검색 가능한 기상관측소가 노란 점과 빨간 점으로 표시되어 있습니다.

기상관측소 명을 보려면 표시 위로 마우스를 이동하세요.

날씨 관측과 예보를 보려면 클릭하세요.

지도 변경 : 확대하려면 엑스 표시가 있는 녹색 버튼, 축소하려면 빼기 표시가 있는 녹색 버튼, 다음 페이지의 지도를 보려면 녹색 화살표를 클릭하세요.


METAR-TAF: